createdAt,value
2017-09-30T00:00:36.859Z,19.64
2017-09-30T00:03:08.033Z,19.59
2017-09-30T00:08:38.539Z,19.52
2017-09-30T00:11:09.720Z,19.46
2017-09-30T00:13:40.840Z,19.41
2017-09-30T00:16:12.008Z,19.43
2017-09-30T00:18:44.547Z,19.47
2017-09-30T00:21:16.670Z,19.48
2017-09-30T00:23:48.284Z,19.46
2017-09-30T00:26:19.694Z,19.47
2017-09-30T00:28:50.847Z,19.46
2017-09-30T00:31:21.948Z,19.47
2017-09-30T00:33:53.184Z,19.46
2017-09-30T00:36:24.280Z,19.42
2017-09-30T00:38:55.427Z,19.36
2017-09-30T00:41:26.504Z,19.24
2017-09-30T00:43:57.872Z,19.21
2017-09-30T00:46:28.993Z,19.21
2017-09-30T00:49:00.134Z,19.23
2017-09-30T00:51:31.225Z,19.18
2017-09-30T00:54:03.015Z,19.14
2017-09-30T00:56:34.186Z,19.15
2017-09-30T00:59:05.717Z,19.16
2017-09-30T01:01:36.808Z,19.09
2017-09-30T01:04:07.943Z,19.06
2017-09-30T01:06:39.038Z,19.03
2017-09-30T01:09:10.209Z,19.01
2017-09-30T01:11:41.329Z,19.01
2017-09-30T01:14:12.914Z,19.04
2017-09-30T01:16:45.489Z,19.09
2017-09-30T01:19:16.770Z,19.13
2017-09-30T01:21:49.012Z,19.17
2017-09-30T01:24:20.270Z,19.18
2017-09-30T01:26:51.562Z,19.22
2017-09-30T01:29:22.988Z,19.22
2017-09-30T01:31:54.080Z,19.27
2017-09-30T01:34:25.239Z,19.30
2017-09-30T01:36:56.344Z,19.30
2017-09-30T01:39:27.535Z,19.30
2017-09-30T01:41:58.632Z,19.31
2017-09-30T01:44:30.060Z,19.28
2017-09-30T01:47:01.520Z,19.26
2017-09-30T01:49:32.665Z,19.24
2017-09-30T01:52:05.593Z,19.25
2017-09-30T01:54:36.797Z,19.27
2017-09-30T01:57:07.906Z,19.29
2017-09-30T01:59:39.342Z,19.28
2017-09-30T02:02:10.717Z,19.25
2017-09-30T02:04:41.920Z,19.24
2017-09-30T02:07:13.309Z,19.24
2017-09-30T02:09:44.926Z,19.25
2017-09-30T02:12:16.058Z,19.26
2017-09-30T02:14:47.416Z,19.26
2017-09-30T02:17:18.508Z,19.26
2017-09-30T02:19:49.604Z,19.24
2017-09-30T02:22:20.823Z,19.20
2017-09-30T02:24:51.905Z,19.18
2017-09-30T02:27:23.008Z,19.17
2017-09-30T02:29:54.533Z,19.18
2017-09-30T02:32:25.655Z,19.17
2017-09-30T02:34:56.733Z,19.14
2017-09-30T02:37:27.813Z,19.13
2017-09-30T02:39:58.872Z,19.12
2017-09-30T02:42:29.968Z,19.08
2017-09-30T02:45:01.794Z,19.08
2017-09-30T02:47:32.912Z,19.10
2017-09-30T02:50:04.594Z,19.12
2017-09-30T02:52:35.681Z,19.11
2017-09-30T02:55:06.752Z,19.09
2017-09-30T02:57:37.864Z,19.04
2017-09-30T03:00:09.227Z,19.02
2017-09-30T03:02:40.329Z,19.02
2017-09-30T03:05:11.514Z,19.01
2017-09-30T03:07:42.981Z,18.98
2017-09-30T03:10:14.165Z,18.95
2017-09-30T03:12:46.495Z,18.91
2017-09-30T03:15:17.873Z,18.88
2017-09-30T03:17:49.182Z,18.83
2017-09-30T03:20:20.287Z,18.79
2017-09-30T03:22:51.677Z,18.78
2017-09-30T03:25:22.757Z,18.76
2017-09-30T03:27:53.815Z,18.73
2017-09-30T03:30:25.168Z,18.68
2017-09-30T03:32:56.588Z,18.65
2017-09-30T03:35:27.691Z,18.61
2017-09-30T03:37:58.761Z,18.56
2017-09-30T03:40:29.864Z,18.53
2017-09-30T03:43:00.941Z,18.52
2017-09-30T03:45:32.484Z,18.51
2017-09-30T03:48:05.076Z,18.50
2017-09-30T03:50:36.186Z,18.47
2017-09-30T03:53:07.277Z,18.48
2017-09-30T03:55:38.385Z,18.49
2017-09-30T03:58:09.584Z,18.51
2017-09-30T04:00:40.947Z,18.53
2017-09-30T04:03:12.161Z,18.50
2017-09-30T04:05:43.326Z,18.49
2017-09-30T04:08:14.797Z,18.49
2017-09-30T04:10:46.865Z,18.51
2017-09-30T04:13:17.925Z,18.52
2017-09-30T04:15:49.721Z,18.52
2017-09-30T04:18:20.868Z,18.51
2017-09-30T04:20:51.939Z,18.53
2017-09-30T04:23:23.041Z,18.56
2017-09-30T04:25:54.097Z,18.56
2017-09-30T04:28:25.224Z,18.57
2017-09-30T04:30:56.588Z,18.56
2017-09-30T04:33:27.658Z,18.57
2017-09-30T04:35:58.733Z,18.58
2017-09-30T04:38:29.780Z,18.59
2017-09-30T04:41:01.095Z,18.59
2017-09-30T04:43:32.130Z,18.57
2017-09-30T04:46:04.471Z,18.56
2017-09-30T04:48:35.513Z,18.56
2017-09-30T04:51:06.610Z,18.56
2017-09-30T04:53:37.697Z,18.55
2017-09-30T04:56:08.964Z,18.54
2017-09-30T04:58:40.433Z,18.50
2017-09-30T05:01:12.214Z,18.45
2017-09-30T05:03:43.597Z,18.40
2017-09-30T05:06:14.896Z,18.35
2017-09-30T05:08:47.359Z,18.33
2017-09-30T05:11:18.435Z,18.27
2017-09-30T05:13:50.051Z,18.22
2017-09-30T05:16:21.401Z,18.16
2017-09-30T05:18:52.586Z,18.12
2017-09-30T05:21:23.630Z,18.13
2017-09-30T05:23:54.771Z,18.16
2017-09-30T05:26:25.867Z,18.19
2017-09-30T05:28:57.069Z,18.23
2017-09-30T05:31:29.530Z,18.28
2017-09-30T05:34:00.749Z,18.31
2017-09-30T05:36:31.922Z,18.33
2017-09-30T05:39:03.708Z,18.36
2017-09-30T05:41:34.744Z,18.54
2017-09-30T05:44:06.262Z,18.72
2017-09-30T05:46:37.736Z,18.79
2017-09-30T05:49:09.058Z,18.78
2017-09-30T05:51:40.371Z,18.79
2017-09-30T05:54:11.491Z,18.79
2017-09-30T05:56:42.712Z,18.83
2017-09-30T05:59:13.831Z,18.92
2017-09-30T06:01:45.841Z,18.96
2017-09-30T06:04:16.996Z,18.98
2017-09-30T06:06:48.888Z,19.05
2017-09-30T06:09:19.961Z,19.11
2017-09-30T06:11:51.192Z,19.15
2017-09-30T06:14:22.306Z,19.23
2017-09-30T06:16:53.653Z,19.24
2017-09-30T06:19:24.671Z,19.23
2017-09-30T06:21:55.728Z,19.25
2017-09-30T06:24:27.062Z,19.34
2017-09-30T06:26:58.117Z,19.45
2017-09-30T06:29:29.180Z,19.54
2017-09-30T06:32:00.561Z,19.53
2017-09-30T06:34:31.636Z,19.51
2017-09-30T06:37:03.027Z,19.48
2017-09-30T06:39:34.083Z,19.41
2017-09-30T06:42:06.155Z,19.42
2017-09-30T06:44:37.257Z,19.38
2017-09-30T06:47:08.640Z,19.46
2017-09-30T06:49:39.762Z,19.47
2017-09-30T06:52:10.851Z,19.45
2017-09-30T06:54:42.162Z,19.48
2017-09-30T06:57:13.447Z,19.58
2017-09-30T06:59:45.624Z,19.52
2017-09-30T07:02:17.556Z,19.75
2017-09-30T07:04:49.688Z,19.81
2017-09-30T07:07:20.826Z,19.73
2017-09-30T07:09:51.934Z,19.77
2017-09-30T07:12:23.193Z,19.81
2017-09-30T07:14:54.294Z,19.85
2017-09-30T07:17:25.667Z,19.93
2017-09-30T07:19:56.712Z,19.92
2017-09-30T07:22:27.761Z,20.03
2017-09-30T07:24:58.800Z,20.04
2017-09-30T07:27:30.133Z,20.10
2017-09-30T07:30:01.339Z,20.22
2017-09-30T07:32:32.752Z,20.39
2017-09-30T07:35:04.140Z,20.46
2017-09-30T07:37:35.384Z,20.58
2017-09-30T07:40:07.280Z,20.53
2017-09-30T07:42:39.622Z,20.71
2017-09-30T07:45:10.709Z,20.90
2017-09-30T07:47:42.476Z,21.01
2017-09-30T07:50:13.701Z,21.00
2017-09-30T07:52:45.064Z,21.05
2017-09-30T07:55:16.484Z,21.05
2017-09-30T07:57:49.135Z,21.32
2017-09-30T08:00:20.294Z,21.38
2017-09-30T08:02:52.072Z,21.61
2017-09-30T08:05:23.656Z,21.86
2017-09-30T08:07:54.776Z,21.96
2017-09-30T08:10:25.835Z,22.32
2017-09-30T08:12:56.948Z,22.91
2017-09-30T08:15:28.085Z,23.64
2017-09-30T08:17:59.222Z,24.39
2017-09-30T08:20:30.306Z,24.71
2017-09-30T08:23:01.851Z,25.16
2017-09-30T08:25:33.003Z,25.26
2017-09-30T08:28:05.826Z,25.34
2017-09-30T08:30:37.500Z,25.34
2017-09-30T08:33:08.567Z,25.54
2017-09-30T08:35:39.659Z,25.58
2017-09-30T08:38:10.862Z,25.23
2017-09-30T08:40:42.009Z,25.05
2017-09-30T08:43:13.278Z,25.10
2017-09-30T08:45:45.056Z,25.53
2017-09-30T08:48:16.616Z,25.52
2017-09-30T08:50:48.738Z,25.57
2017-09-30T08:53:19.896Z,25.34
2017-09-30T08:55:51.740Z,25.33
2017-09-30T08:58:22.816Z,25.26
2017-09-30T09:00:53.884Z,25.32
2017-09-30T09:03:25.278Z,25.62
2017-09-30T09:05:56.448Z,26.13
2017-09-30T09:08:27.565Z,25.83
2017-09-30T09:10:58.654Z,25.50
2017-09-30T09:13:29.774Z,25.61
2017-09-30T09:16:01.627Z,25.87
2017-09-30T09:18:33.237Z,26.23
2017-09-30T09:21:04.466Z,26.55
2017-09-30T09:23:35.603Z,26.59
2017-09-30T09:26:07.283Z,26.49
2017-09-30T09:28:38.362Z,26.34
2017-09-30T09:31:09.481Z,25.94
2017-09-30T09:33:40.580Z,26.31
2017-09-30T09:36:12.483Z,27.08
2017-09-30T09:38:43.611Z,27.52
2017-09-30T09:41:14.720Z,27.69
2017-09-30T09:43:46.001Z,27.40
2017-09-30T09:46:17.090Z,27.70
2017-09-30T09:48:49.251Z,28.14
2017-09-30T09:51:20.374Z,29.76
2017-09-30T09:53:52.165Z,31.21
2017-09-30T09:56:24.269Z,32.29
2017-09-30T09:58:55.388Z,33.96
2017-09-30T10:01:26.502Z,35.42
2017-09-30T10:03:58.205Z,37.98
2017-09-30T10:06:29.257Z,39.38
2017-09-30T10:09:00.338Z,38.95
2017-09-30T10:11:31.752Z,35.97
2017-09-30T10:14:03.267Z,34.82
2017-09-30T10:16:40.794Z,34.14
2017-09-30T10:19:11.852Z,32.99
2017-09-30T10:21:42.918Z,35.26
2017-09-30T10:24:14.183Z,39.55
2017-09-30T10:26:45.610Z,41.70
2017-09-30T10:29:16.723Z,43.22
2017-09-30T10:34:50.130Z,44.97
2017-09-30T10:37:25.960Z,44.64
2017-09-30T10:39:57.467Z,45.83
2017-09-30T10:42:30.277Z,47.00
2017-09-30T10:45:02.120Z,44.97
2017-09-30T10:47:36.486Z,42.79
2017-09-30T10:50:14.328Z,39.89
2017-09-30T10:52:50.094Z,38.54
2017-09-30T10:55:22.417Z,36.68
2017-09-30T10:57:56.752Z,34.07
2017-09-30T11:00:34.465Z,32.03
2017-09-30T11:03:13.843Z,31.82
2017-09-30T11:05:49.416Z,30.94
2017-09-30T11:08:24.155Z,31.60
2017-09-30T11:14:05.954Z,33.13
2017-09-30T11:16:38.303Z,36.33
2017-09-30T11:19:11.924Z,39.92
2017-09-30T11:21:43.384Z,39.73
2017-09-30T11:24:17.090Z,37.25
2017-09-30T11:26:52.940Z,36.43
2017-09-30T11:29:28.832Z,36.17
2017-09-30T11:32:03.433Z,36.30
2017-09-30T11:34:34.602Z,33.97
2017-09-30T11:37:06.069Z,32.66
2017-09-30T11:39:38.458Z,32.86
2017-09-30T11:42:10.373Z,34.79
2017-09-30T11:44:41.604Z,35.06
2017-09-30T11:47:15.072Z,33.56
2017-09-30T11:49:47.323Z,32.14
2017-09-30T11:52:19.035Z,32.01
2017-09-30T11:54:50.637Z,33.51
2017-09-30T11:57:21.950Z,35.62
2017-09-30T11:59:53.094Z,36.43
2017-09-30T12:02:25.400Z,37.54
2017-09-30T12:04:56.572Z,35.72
2017-09-30T12:07:27.984Z,34.43
2017-09-30T12:09:59.451Z,38.25
2017-09-30T12:12:32.208Z,38.80
2017-09-30T12:15:07.327Z,39.09
2017-09-30T12:17:38.940Z,37.59
2017-09-30T12:20:10.166Z,34.90
2017-09-30T12:22:44.001Z,33.36
2017-09-30T12:25:15.139Z,31.54
2017-09-30T12:27:47.517Z,30.69
2017-09-30T12:30:20.067Z,29.78
2017-09-30T12:32:51.802Z,28.91
2017-09-30T12:35:23.051Z,27.90
2017-09-30T12:37:54.530Z,27.74
2017-09-30T12:40:26.147Z,27.14
2017-09-30T12:42:57.336Z,27.20
2017-09-30T12:45:31.995Z,27.15
2017-09-30T12:48:04.612Z,26.51
2017-09-30T12:50:35.879Z,26.42
2017-09-30T12:53:09.061Z,25.97
2017-09-30T12:55:40.521Z,25.59
2017-09-30T12:58:12.784Z,25.65
2017-09-30T13:00:52.424Z,25.57
2017-09-30T13:03:32.689Z,25.45
2017-09-30T13:09:45.180Z,25.25
2017-09-30T13:12:35.391Z,25.09
2017-09-30T13:15:38.914Z,25.11
2017-09-30T13:27:35.170Z,24.96
2017-09-30T13:36:40.168Z,24.83
2017-09-30T13:39:42.200Z,24.85
2017-09-30T13:45:06.654Z,24.60
2017-09-30T13:47:43.754Z,24.39
2017-09-30T13:50:32.990Z,24.20
2017-09-30T13:53:05.819Z,24.20
2017-09-30T13:55:52.672Z,24.11
2017-09-30T13:58:35.445Z,23.81
2017-09-30T14:01:33.793Z,23.73
2017-09-30T14:04:10.369Z,23.62
2017-09-30T14:06:44.157Z,23.46
2017-09-30T14:09:17.739Z,23.41
2017-09-30T14:11:53.705Z,23.25
2017-09-30T14:14:30.753Z,22.86
2017-09-30T14:17:17.816Z,22.55
2017-09-30T14:19:55.314Z,22.23
2017-09-30T14:22:32.073Z,21.95
2017-09-30T14:25:05.006Z,21.64
2017-09-30T14:27:41.921Z,21.52
2017-09-30T14:30:15.293Z,21.12
2017-09-30T14:32:50.751Z,20.86
2017-09-30T14:35:24.651Z,20.67
2017-09-30T14:38:01.784Z,20.64
2017-09-30T14:40:33.701Z,20.75
2017-09-30T14:43:05.685Z,20.69
2017-09-30T14:45:38.996Z,20.23
2017-09-30T14:48:13.789Z,20.09
2017-09-30T14:50:47.287Z,19.91
2017-09-30T14:53:19.684Z,19.66
2017-09-30T14:55:54.279Z,19.76
2017-09-30T14:58:29.659Z,19.89
2017-09-30T15:01:03.397Z,19.70
2017-09-30T15:03:35.387Z,19.52
2017-09-30T15:06:08.504Z,19.61
2017-09-30T15:08:40.154Z,19.65
2017-09-30T15:11:13.563Z,19.48
2017-09-30T15:13:47.160Z,19.50
2017-09-30T15:16:19.821Z,19.50
2017-09-30T15:18:51.482Z,19.37
2017-09-30T15:21:40.022Z,19.28
2017-09-30T15:24:15.216Z,19.08
2017-09-30T15:27:00.536Z,19.22
2017-09-30T15:29:34.314Z,19.24
2017-09-30T15:32:09.548Z,19.19
2017-09-30T15:34:43.844Z,19.05
2017-09-30T15:37:21.329Z,18.88
2017-09-30T15:39:54.807Z,18.78
2017-09-30T15:42:29.752Z,18.75
2017-09-30T16:25:08.852Z,18.09
2017-09-30T16:27:42.485Z,18.24
2017-09-30T16:30:13.851Z,18.35
2017-09-30T16:32:46.215Z,18.41
2017-09-30T16:35:17.252Z,18.37
2017-09-30T16:37:48.384Z,18.48
2017-09-30T16:40:19.878Z,18.61
2017-09-30T16:42:51.104Z,18.57
2017-09-30T16:45:22.194Z,18.50
2017-09-30T16:47:53.247Z,18.49
2017-09-30T16:50:24.494Z,18.38
2017-09-30T16:53:58.111Z,18.32
2017-09-30T16:56:29.347Z,18.17
2017-09-30T16:59:00.490Z,18.04
2017-09-30T17:01:31.679Z,17.94
2017-09-30T17:04:04.144Z,17.94
2017-09-30T17:06:35.558Z,17.95
2017-09-30T17:09:08.129Z,17.92
2017-09-30T17:11:44.273Z,17.92
2017-09-30T17:14:15.517Z,17.86
2017-09-30T17:16:48.712Z,17.83
2017-09-30T17:19:19.907Z,17.76
2017-09-30T17:21:51.261Z,17.67
2017-09-30T17:24:22.725Z,17.55
2017-09-30T17:26:53.808Z,17.45
2017-09-30T17:29:25.189Z,17.38
2017-09-30T17:31:56.294Z,17.20
2017-09-30T17:34:27.374Z,17.08
2017-09-30T17:36:58.615Z,16.96
2017-09-30T17:39:29.752Z,16.94
2017-09-30T17:42:01.067Z,16.99
2017-09-30T17:44:32.183Z,16.98
2017-09-30T17:47:04.472Z,16.97
2017-09-30T17:49:35.543Z,16.95
2017-09-30T17:52:07.267Z,16.95
2017-09-30T17:54:38.313Z,16.91
2017-09-30T17:57:10.034Z,16.83
2017-09-30T17:59:43.473Z,16.73
2017-09-30T18:02:15.167Z,16.68
2017-09-30T18:04:46.573Z,16.73
2017-09-30T18:07:17.989Z,16.69
2017-09-30T18:09:49.656Z,16.66
2017-09-30T18:12:20.931Z,16.60
2017-09-30T18:14:52.290Z,16.58
2017-09-30T18:17:23.703Z,16.57
2017-09-30T18:19:54.817Z,16.62
2017-09-30T18:22:26.473Z,16.66
2017-09-30T18:24:57.589Z,16.69
2017-09-30T18:27:29.060Z,16.59
2017-09-30T18:30:00.196Z,16.59
2017-09-30T18:32:31.316Z,16.52
2017-09-30T18:35:04.659Z,16.40
2017-09-30T18:37:36.050Z,16.41
2017-09-30T18:40:10.274Z,16.23
2017-09-30T18:42:44.109Z,16.18
2017-09-30T18:51:11.461Z,16.23
2017-09-30T18:54:00.166Z,16.12
2017-09-30T18:56:44.367Z,16.03
2017-09-30T18:59:34.684Z,16.04
2017-09-30T19:10:55.129Z,16.07
2017-09-30T19:13:46.415Z,16.11
2017-09-30T19:16:30.929Z,16.15
2017-09-30T19:19:21.288Z,16.11
2017-09-30T19:22:06.347Z,16.11
2017-09-30T19:24:57.441Z,16.12
2017-09-30T19:30:13.890Z,16.16
2017-09-30T19:32:45.037Z,16.19
2017-09-30T19:35:17.064Z,16.21
2017-09-30T19:37:48.824Z,16.22
2017-09-30T19:40:20.867Z,16.10
2017-09-30T19:42:52.506Z,16.10
2017-09-30T19:45:24.016Z,16.20
2017-09-30T19:47:55.326Z,16.26
2017-09-30T19:50:26.779Z,16.23
2017-09-30T19:52:59.306Z,16.30
2017-09-30T19:55:30.496Z,16.39
2017-09-30T19:58:03.533Z,16.39
2017-09-30T20:03:15.242Z,16.46
2017-09-30T20:05:46.445Z,16.58
2017-09-30T20:08:17.909Z,16.57
2017-09-30T20:10:49.431Z,16.57
2017-09-30T20:13:20.617Z,16.56
2017-09-30T20:15:51.694Z,16.54
2017-09-30T20:18:22.773Z,16.59
2017-09-30T20:20:54.160Z,16.62
2017-09-30T20:23:25.248Z,16.56
2017-09-30T20:25:56.526Z,16.58
2017-09-30T20:28:27.733Z,16.66
2017-09-30T20:31:00.169Z,16.72
2017-09-30T20:33:31.916Z,16.70
2017-09-30T20:36:04.257Z,16.67
2017-09-30T20:38:35.762Z,16.69
2017-09-30T20:41:06.883Z,16.64
2017-09-30T20:43:37.955Z,16.62
2017-09-30T20:46:09.023Z,16.64
2017-09-30T20:48:40.420Z,16.63
2017-09-30T20:51:11.508Z,16.65
2017-09-30T20:53:43.137Z,16.67
2017-09-30T20:56:14.233Z,16.68
2017-09-30T20:58:45.387Z,16.67
2017-09-30T21:01:16.435Z,16.65
2017-09-30T21:03:47.739Z,16.62
2017-09-30T21:06:20.128Z,16.60
2017-09-30T21:08:51.217Z,16.59
2017-09-30T21:11:22.354Z,16.57
2017-09-30T21:13:53.721Z,16.53
2017-09-30T21:16:24.785Z,16.49
2017-09-30T21:18:56.218Z,16.42
2017-09-30T21:21:27.339Z,16.38
2017-09-30T21:23:58.713Z,16.37
2017-09-30T21:26:29.935Z,16.26
2017-09-30T21:29:03.792Z,16.16
2017-09-30T21:31:34.899Z,15.96
2017-09-30T21:34:06.587Z,15.96
2017-09-30T21:36:38.081Z,15.99
2017-09-30T21:39:09.393Z,16.00
2017-09-30T21:41:40.511Z,16.00
2017-09-30T21:44:11.607Z,16.00
2017-09-30T21:46:42.707Z,15.88
2017-09-30T21:49:13.790Z,15.83
2017-09-30T21:51:45.171Z,15.82
2017-09-30T21:54:16.334Z,15.89
2017-09-30T21:56:47.548Z,15.96
2017-09-30T21:59:18.980Z,16.03
2017-09-30T22:01:50.037Z,15.99
2017-09-30T22:04:21.564Z,16.04
2017-09-30T22:06:53.091Z,16.05
2017-09-30T22:09:24.274Z,16.09
2017-09-30T22:11:55.681Z,16.14
2017-09-30T22:14:26.999Z,16.11
2017-09-30T22:16:58.539Z,16.12
2017-09-30T22:19:30.041Z,16.16
2017-09-30T22:22:03.067Z,16.19
2017-09-30T22:24:34.540Z,16.22
2017-09-30T22:27:05.604Z,16.24
2017-09-30T22:29:36.706Z,16.27
2017-09-30T22:32:07.752Z,16.32
2017-09-30T22:34:39.119Z,16.31
2017-09-30T22:37:10.452Z,16.32
2017-09-30T22:39:41.559Z,16.26
2017-09-30T22:42:12.685Z,16.15
2017-09-30T22:44:43.789Z,16.06
2017-09-30T22:47:14.845Z,15.99
2017-09-30T22:49:46.205Z,16.01
2017-09-30T22:52:17.565Z,15.97
2017-09-30T22:54:48.726Z,15.95
2017-09-30T22:57:20.322Z,15.96
2017-09-30T22:59:51.497Z,15.99
2017-09-30T23:02:22.590Z,16.03
2017-09-30T23:04:53.810Z,15.99
2017-09-30T23:07:24.858Z,15.93
2017-09-30T23:09:56.435Z,15.85
2017-09-30T23:12:27.552Z,15.84
2017-09-30T23:14:59.630Z,15.81
2017-09-30T23:17:30.858Z,15.77
2017-09-30T23:20:04.659Z,15.75
2017-09-30T23:22:35.727Z,15.70
2017-09-30T23:25:07.988Z,15.62
2017-09-30T23:27:39.053Z,15.55
2017-09-30T23:30:10.143Z,15.53
2017-09-30T23:32:41.216Z,15.43
2017-09-30T23:35:12.246Z,15.42
2017-09-30T23:37:43.590Z,15.39
2017-09-30T23:40:14.842Z,15.38
2017-09-30T23:42:46.396Z,15.34
2017-09-30T23:45:17.485Z,15.24
2017-09-30T23:47:48.644Z,15.18
2017-09-30T23:50:19.704Z,15.05
2017-09-30T23:52:51.039Z,15.03
2017-09-30T23:55:22.369Z,14.94
2017-09-30T23:57:53.484Z,14.87
